Time;durP1;ratioP1;P1;durP2;ratioP2;P2;SDS_P1;SDS_P2;PMS_P1;PMS_P2;Temp;Humidity;BMP_temperature;BMP_pressure;BME280_temperature;BME280_humidity;BME280_pressure;Samples;Min_cycle;Max_cycle;Signal;HPM_P1;HPM_P2
2023/03/21 00:00:36;;;;;;;15.93;6.70;;;10.10;99.90;;;;;;5051618;28;20465;-81
2023/03/21 00:03:03;;;;;;;17.27;5.57;;;10.00;99.90;;;;;;5033779;28;21001;-82
2023/03/21 00:05:32;;;;;;;15.63;5.60;;;10.00;99.90;;;;;;5051608;28;20451;-81
2023/03/21 00:07:59;;;;;;;20.00;6.07;;;10.00;99.90;;;;;;5051556;28;20485;-81
2023/03/21 00:10:27;;;;;;;15.17;6.20;;;10.00;99.90;;;;;;5017783;28;20455;-82
2023/03/21 00:12:57;;;;;;;15.07;5.20;;;10.10;99.90;;;;;;5051222;28;20451;-81
2023/03/21 00:15:26;;;;;;;16.03;5.27;;;10.00;99.90;;;;;;5051881;28;20538;-81
2023/03/21 00:18:02;;;;;;;14.03;5.30;;;10.00;99.90;;;;;;5051409;28;20536;-81
2023/03/21 00:20:30;;;;;;;13.73;5.87;;;9.90;99.90;;;;;;5051778;28;20478;-81
2023/03/21 00:22:57;;;;;;;13.77;5.77;;;10.00;99.90;;;;;;5051260;28;20533;-81
2023/03/21 00:25:34;;;;;;;18.33;6.80;;;10.00;99.90;;;;;;5033976;28;20443;-81
2023/03/21 00:28:12;;;;;;;12.80;5.60;;;10.00;99.90;;;;;;5033835;28;20471;-81
2023/03/21 00:30:40;;;;;;;23.67;6.67;;;10.00;99.90;;;;;;5051688;28;20809;-81
2023/03/21 00:33:09;;;;;;;13.43;6.10;;;10.00;99.90;;;;;;5051310;28;20490;-81
2023/03/21 00:35:36;;;;;;;22.87;6.50;;;10.00;99.90;;;;;;5033602;28;20478;-81
2023/03/21 00:38:11;;;;;;;15.50;6.10;;;10.00;99.90;;;;;;5051425;28;20552;-81
2023/03/21 00:40:49;;;;;;;13.80;6.20;;;10.00;99.90;;;;;;5051386;28;20447;-81
2023/03/21 00:43:22;;;;;;;15.17;6.00;;;10.10;99.90;;;;;;5033367;28;20896;-81
2023/03/21 00:45:50;;;;;;;20.63;6.33;;;10.10;99.90;;;;;;5048758;28;20456;-81
2023/03/21 00:48:18;;;;;;;19.40;6.93;;;10.10;99.90;;;;;;5051058;28;20479;-81
2023/03/21 00:50:48;;;;;;;17.27;6.67;;;10.00;99.90;;;;;;5051421;28;20541;-81
2023/03/21 00:53:16;;;;;;;18.10;6.50;;;10.10;99.90;;;;;;5033366;28;20455;-81
2023/03/21 00:55:44;;;;;;;8.80;5.13;;;10.10;99.90;;;;;;5050980;28;20463;-81
2023/03/21 00:58:12;;;;;;;21.50;5.20;;;10.10;99.90;;;;;;5054223;28;20559;-81
2023/03/21 01:00:40;;;;;;;23.63;8.43;;;10.10;99.90;;;;;;5036667;28;20482;-81
2023/03/21 01:03:12;;;;;;;12.00;6.60;;;10.10;99.90;;;;;;5054909;28;20509;-81
2023/03/21 01:06:05;;;;;;;13.27;6.20;;;10.10;99.90;;;;;;5038022;28;20524;-81
2023/03/21 01:08:34;;;;;;;15.90;6.00;;;10.10;99.90;;;;;;5045483;28;20479;-81
2023/03/21 01:11:05;;;;;;;16.40;7.07;;;10.10;99.90;;;;;;5054658;28;20877;-81
2023/03/21 01:13:32;;;;;;;14.50;7.00;;;10.10;99.90;;;;;;5054728;28;20998;-81
2023/03/21 01:16:08;;;;;;;16.47;6.67;;;10.10;99.90;;;;;;5054847;28;20505;-81
2023/03/21 01:18:40;;;;;;;15.43;6.77;;;10.10;99.90;;;;;;5054594;28;20475;-81
2023/03/21 01:21:10;;;;;;;17.40;6.67;;;10.10;99.90;;;;;;5054406;28;20447;-81
2023/03/21 01:23:51;;;;;;;14.20;6.90;;;10.20;99.90;;;;;;5054201;28;20487;-81
2023/03/21 01:26:19;;;;;;;18.43;7.37;;;10.10;99.90;;;;;;5054244;28;20463;-81
2023/03/21 01:28:46;;;;;;;16.43;7.27;;;10.10;99.90;;;;;;5054657;28;20471;-81
2023/03/21 01:31:26;;;;;;;10.57;6.67;;;10.10;99.90;;;;;;5054309;28;20485;-81
2023/03/21 01:33:56;;;;;;;18.23;7.63;;;10.10;99.90;;;;;;5036403;28;20463;-81
2023/03/21 01:36:25;;;;;;;19.97;6.90;;;10.10;99.90;;;;;;5054245;28;20895;-81
2023/03/21 01:38:52;;;;;;;16.30;6.73;;;10.10;99.90;;;;;;5054086;28;20475;-81
2023/03/21 01:41:40;;;;;;;22.43;7.70;;;10.10;99.90;;;;;;5054011;28;20543;-81
2023/03/21 01:44:13;;;;;;;14.63;6.07;;;10.10;99.90;;;;;;5053571;28;20482;-81
2023/03/21 01:46:52;;;;;;;17.77;6.20;;;10.10;99.90;;;;;;5053006;28;20451;-81
2023/03/21 01:49:37;;;;;;;13.80;7.50;;;10.10;99.90;;;;;;5054093;28;20990;-81
2023/03/21 01:52:08;;;;;;;15.60;6.07;;;10.10;99.90;;;;;;5053742;28;20462;-81
2023/03/21 01:54:41;;;;;;;21.17;7.70;;;10.00;99.90;;;;;;5053975;28;20491;-81
2023/03/21 01:57:16;;;;;;;15.70;7.70;;;10.00;99.90;;;;;;5053862;28;20455;-81
2023/03/21 01:59:48;;;;;;;18.20;7.40;;;10.00;99.90;;;;;;5053808;28;20501;-81
2023/03/21 02:02:23;;;;;;;14.97;6.70;;;10.00;99.90;;;;;;5053845;28;20451;-81
2023/03/21 02:04:56;;;;;;;11.10;7.23;;;9.90;99.90;;;;;;5053516;28;20455;-81
2023/03/21 02:07:28;;;;;;;19.73;7.27;;;9.80;99.90;;;;;;5053621;28;20455;-81
2023/03/21 02:09:55;;;;;;;23.97;8.43;;;9.80;99.90;;;;;;5053062;28;20462;-81
2023/03/21 02:12:24;;;;;;;16.37;6.50;;;9.80;99.90;;;;;;5053653;28;20463;-81
2023/03/21 02:15:02;;;;;;;15.40;6.43;;;9.80;99.90;;;;;;5053524;28;20462;-81
2023/03/21 02:17:49;;;;;;;20.67;7.23;;;9.80;99.90;;;;;;5053615;28;20487;-81
2023/03/21 02:20:54;;;;;;;18.30;7.93;;;9.90;99.90;;;;;;5035620;28;20479;-81
2023/03/21 02:23:59;;;;;;;16.23;7.07;;;9.80;99.90;;;;;;5053454;28;20455;-81
2023/03/21 02:27:05;;;;;;;24.67;8.93;;;9.70;99.90;;;;;;5053298;28;20455;-81
2023/03/21 02:30:37;;;;;;;14.00;7.57;;;9.70;99.90;;;;;;5053207;28;20554;-81
2023/03/21 02:33:30;;;;;;;13.50;6.63;;;9.60;99.90;;;;;;5028441;22;20488;-79
2023/03/21 02:36:16;;;;;;;18.40;7.67;;;9.60;99.90;;;;;;5032327;28;20448;-79
2023/03/21 02:38:51;;;;;;;17.33;9.80;;;9.50;99.90;;;;;;5032325;28;20464;-79
2023/03/21 02:41:24;;;;;;;18.77;10.00;;;9.40;99.90;;;;;;5032807;28;20833;-79
2023/03/21 02:43:56;;;;;;;19.03;10.90;;;9.40;99.90;;;;;;5015305;28;20827;-79
2023/03/21 02:46:28;;;;;;;19.87;11.97;;;9.30;99.90;;;;;;5033023;28;20460;-79
2023/03/21 02:49:17;;;;;;;17.30;11.70;;;9.20;99.90;;;;;;5033030;28;21006;-79
2023/03/21 02:51:47;;;;;;;19.13;13.00;;;9.20;99.90;;;;;;5027193;28;20466;-79
2023/03/21 02:54:19;;;;;;;24.37;17.60;;;9.00;99.90;;;;;;5032501;28;20456;-79
2023/03/21 02:56:48;;;;;;;23.50;21.40;;;9.00;99.90;;;;;;5033155;28;20452;-79
2023/03/21 02:59:18;;;;;;;23.17;21.17;;;8.90;99.90;;;;;;5032836;28;20485;-79
2023/03/21 03:01:45;;;;;;;31.17;29.07;;;8.90;99.90;;;;;;5032739;28;20819;-79
2023/03/21 03:04:22;;;;;;;35.63;33.47;;;8.80;99.90;;;;;;5032976;28;20547;-79
2023/03/21 03:07:13;;;;;;;49.40;46.57;;;8.70;99.90;;;;;;5015398;28;20951;-79
2023/03/21 03:09:59;;;;;;;62.37;59.23;;;8.70;99.90;;;;;;5032510;28;20474;-79
2023/03/21 03:12:33;;;;;;;70.53;66.47;;;8.60;99.90;;;;;;5032521;28;20458;-79
2023/03/21 03:15:16;;;;;;;81.57;77.37;;;8.60;99.90;;;;;;5032568;28;20448;-79
2023/03/21 03:17:51;;;;;;;98.07;93.37;;;8.50;99.90;;;;;;5032515;28;20572;-79
2023/03/21 03:20:30;;;;;;;120.47;115.27;;;8.60;99.90;;;;;;5031941;28;20487;-78
2023/03/21 03:23:16;;;;;;;127.50;121.57;;;8.50;99.90;;;;;;5032369;28;20460;-79
2023/03/21 03:25:50;;;;;;;134.07;127.97;;;8.50;99.90;;;;;;5032670;28;20475;-79
2023/03/21 03:28:21;;;;;;;137.30;130.87;;;8.50;99.90;;;;;;5032465;28;20482;-79
2023/03/21 03:30:50;;;;;;;127.27;121.40;;;8.60;99.90;;;;;;5032534;28;20538;-79
2023/03/21 03:33:22;;;;;;;126.60;120.87;;;8.60;99.90;;;;;;5014620;28;20465;-78
2023/03/21 03:35:50;;;;;;;120.10;114.60;;;8.60;99.90;;;;;;5032266;28;20464;-79
2023/03/21 03:38:20;;;;;;;109.60;104.60;;;8.70;99.90;;;;;;5014559;28;20644;-79
2023/03/21 03:40:52;;;;;;;94.00;89.23;;;8.70;99.90;;;;;;5014481;28;20480;-79
2023/03/21 03:43:24;;;;;;;77.63;73.40;;;8.70;99.90;;;;;;5032093;28;20456;-79
2023/03/21 03:45:57;;;;;;;57.37;53.93;;;8.80;99.90;;;;;;5032203;28;20488;-79
2023/03/21 03:48:27;;;;;;;49.87;46.87;;;8.80;99.90;;;;;;5032112;28;20476;-79
2023/03/21 03:51:00;;;;;;;46.10;43.10;;;8.80;99.90;;;;;;5014519;28;20456;-79
2023/03/21 03:53:34;;;;;;;41.23;38.40;;;8.90;99.90;;;;;;5032263;28;20459;-79
2023/03/21 03:56:05;;;;;;;33.90;30.90;;;9.00;99.90;;;;;;5015587;28;20457;-80
2023/03/21 03:58:32;;;;;;;29.10;26.60;;;9.00;99.90;;;;;;5032051;28;20545;-78
2023/03/21 04:00:59;;;;;;;27.40;25.40;;;9.00;99.90;;;;;;5032080;28;20848;-79
2023/03/21 04:03:27;;;;;;;30.67;28.30;;;9.00;99.90;;;;;;5031737;28;20460;-80
2023/03/21 04:05:54;;;;;;;27.90;25.13;;;9.10;99.90;;;;;;5031974;28;20813;-79
2023/03/21 04:08:22;;;;;;;23.10;20.80;;;9.00;99.90;;;;;;5031979;28;20472;-79
2023/03/21 04:10:49;;;;;;;19.13;15.90;;;9.10;99.90;;;;;;5031852;28;20452;-79
2023/03/21 04:13:17;;;;;;;17.23;14.47;;;9.10;99.90;;;;;;5013954;28;20452;-79
2023/03/21 04:15:45;;;;;;;19.03;14.83;;;9.20;99.90;;;;;;5032052;28;20822;-79
2023/03/21 04:18:12;;;;;;;18.50;16.67;;;9.10;99.90;;;;;;5031797;28;20523;-79
2023/03/21 04:20:39;;;;;;;19.97;18.17;;;9.10;99.90;;;;;;4997761;28;20602;-79
2023/03/21 04:23:07;;;;;;;18.93;16.97;;;9.10;99.90;;;;;;5031452;28;20461;-79
2023/03/21 04:25:34;;;;;;;19.67;17.77;;;9.10;99.90;;;;;;5031697;28;20456;-79
2023/03/21 04:28:10;;;;;;;18.20;16.17;;;9.10;99.90;;;;;;5031502;28;21010;-78
2023/03/21 04:30:40;;;;;;;19.67;16.57;;;9.10;99.90;;;;;;5032133;28;20452;-79
2023/03/21 04:33:07;;;;;;;20.60;18.60;;;9.10;99.90;;;;;;5017373;28;20855;-79
2023/03/21 04:38:16;;;;;;;29.53;26.60;;;9.10;99.90;;;;;;5009340;28;20468;-79
2023/03/21 04:40:43;;;;;;;27.10;24.40;;;9.10;99.90;;;;;;5017712;28;20531;-79
2023/03/21 04:43:10;;;;;;;25.80;23.07;;;9.10;99.90;;;;;;5035485;28;20536;-78
2023/03/21 04:45:38;;;;;;;24.23;21.90;;;9.10;99.90;;;;;;5035169;28;20455;-79
2023/03/21 04:48:05;;;;;;;26.43;24.30;;;9.10;99.90;;;;;;5035400;28;20491;-78
2023/03/21 04:50:32;;;;;;;26.00;23.50;;;9.10;99.90;;;;;;5017826;28;20459;-79
2023/03/21 04:52:59;;;;;;;24.93;23.00;;;9.10;99.90;;;;;;5035082;28;20548;-79
2023/03/21 04:55:28;;;;;;;26.53;23.33;;;9.00;99.90;;;;;;5035267;28;20463;-79
2023/03/21 04:57:55;;;;;;;26.53;23.83;;;9.10;99.90;;;;;;5034971;28;20472;-79
2023/03/21 05:00:22;;;;;;;25.27;23.47;;;9.10;99.90;;;;;;5035225;28;21019;-78
2023/03/21 05:02:50;;;;;;;31.67;28.77;;;9.10;99.90;;;;;;5035067;28;20478;-79
2023/03/21 05:05:17;;;;;;;36.43;33.80;;;9.10;99.90;;;;;;5034874;28;20452;-79
2023/03/21 05:07:44;;;;;;;34.57;31.60;;;9.10;99.90;;;;;;5034991;28;20476;-79
2023/03/21 05:10:12;;;;;;;28.27;25.80;;;9.20;99.90;;;;;;5034972;28;20454;-79
2023/03/21 05:12:41;;;;;;;34.90;32.07;;;9.20;99.90;;;;;;5034832;28;20464;-79
2023/03/21 05:15:11;;;;;;;45.83;43.33;;;9.20;99.90;;;;;;5035074;28;20463;-79
2023/03/21 05:18:10;;;;;;;62.40;58.73;;;9.10;99.90;;;;;;5034619;28;20518;-79
2023/03/21 05:20:54;;;;;;;56.50;53.23;;;9.00;99.90;;;;;;5027607;28;20559;-79
2023/03/21 05:23:20;;;;;;;76.17;72.27;;;9.00;99.90;;;;;;5034613;28;20491;-79
2023/03/21 05:25:47;;;;;;;80.37;76.27;;;9.00;99.90;;;;;;5034892;28;20452;-79
2023/03/21 05:28:17;;;;;;;58.60;54.77;;;9.00;99.90;;;;;;5034393;28;20483;-80
2023/03/21 05:30:44;;;;;;;100.93;96.07;;;9.00;99.90;;;;;;5034814;28;20802;-79
2023/03/21 05:33:13;;;;;;;153.97;147.47;;;8.90;99.90;;;;;;5016560;28;20460;-79
2023/03/21 05:35:39;;;;;;;245.77;235.87;;;8.80;99.90;;;;;;5034658;28;20451;-79
2023/03/21 05:38:06;;;;;;;269.30;258.97;;;8.90;99.90;;;;;;5034304;28;20475;-79
2023/03/21 05:40:33;;;;;;;265.73;255.43;;;8.80;99.90;;;;;;5016419;28;20526;-79
2023/03/21 05:43:00;;;;;;;262.87;253.03;;;8.80;99.90;;;;;;5033264;28;20464;-80
2023/03/21 05:45:27;;;;;;;285.93;274.37;;;8.90;99.90;;;;;;5034213;28;20452;-79
2023/03/21 05:47:54;;;;;;;341.60;327.93;;;8.80;99.90;;;;;;5034227;28;20468;-79
2023/03/21 05:50:22;;;;;;;355.93;340.77;;;8.80;99.90;;;;;;5033987;28;20452;-79
2023/03/21 05:52:49;;;;;;;390.97;373.37;;;8.80;99.90;;;;;;5034206;28;20463;-79
2023/03/21 05:55:16;;;;;;;417.63;398.83;;;8.90;99.90;;;;;;5033915;28;20458;-79
2023/03/21 05:57:44;;;;;;;431.27;412.77;;;8.90;99.90;;;;;;5034125;28;20483;-79
2023/03/21 06:00:12;;;;;;;450.13;430.27;;;8.80;99.90;;;;;;5034271;28;20662;-79
2023/03/21 06:02:39;;;;;;;446.67;426.30;;;8.90;99.90;;;;;;5033810;28;20460;-79
2023/03/21 06:05:07;;;;;;;471.57;450.17;;;8.90;99.90;;;;;;5034202;28;20460;-79
2023/03/21 06:07:36;;;;;;;466.97;446.37;;;9.00;99.90;;;;;;5033771;28;20452;-80
2023/03/21 06:10:02;;;;;;;494.60;471.80;;;8.90;99.90;;;;;;5034088;28;20450;-78
2023/03/21 06:12:30;;;;;;;485.00;463.03;;;9.00;99.90;;;;;;5033528;28;20842;-79
2023/03/21 06:14:57;;;;;;;469.03;447.93;;;9.10;99.90;;;;;;5015985;28;20521;-79
2023/03/21 06:17:24;;;;;;;448.87;428.50;;;9.10;99.90;;;;;;5033278;28;20457;-79
2023/03/21 06:19:50;;;;;;;441.90;422.80;;;9.10;99.90;;;;;;5033516;28;20464;-79
2023/03/21 06:22:17;;;;;;;401.57;384.77;;;9.10;99.90;;;;;;5033263;28;20858;-80
2023/03/21 06:24:45;;;;;;;360.53;345.73;;;9.30;99.90;;;;;;5033821;28;20460;-78
2023/03/21 06:27:12;;;;;;;311.60;299.23;;;9.30;99.90;;;;;;5032930;28;20463;-79
2023/03/21 06:29:40;;;;;;;191.00;183.40;;;9.30;99.90;;;;;;5015204;28;20488;-80
2023/03/21 06:32:07;;;;;;;187.93;180.87;;;9.40;99.90;;;;;;5033310;28;20563;-80
2023/03/21 06:34:34;;;;;;;134.13;128.83;;;9.50;99.90;;;;;;5015703;28;20483;-79
2023/03/21 06:37:02;;;;;;;117.77;112.43;;;9.60;99.90;;;;;;5033246;28;20453;-80
2023/03/21 06:39:31;;;;;;;95.47;91.07;;;9.60;99.90;;;;;;5033674;28;20487;-79
2023/03/21 06:42:02;;;;;;;40.00;37.17;;;9.60;99.90;;;;;;5033495;28;20479;-80
2023/03/21 06:44:29;;;;;;;45.13;41.57;;;9.80;99.90;;;;;;5033555;28;20551;-80
2023/03/21 06:46:57;;;;;;;32.37;30.20;;;9.80;99.90;;;;;;5033496;28;20452;-80
2023/03/21 06:49:24;;;;;;;32.60;29.40;;;9.90;99.90;;;;;;5033583;28;20472;-80
2023/03/21 06:51:51;;;;;;;54.33;50.30;;;9.90;99.90;;;;;;5033526;28;20543;-79
2023/03/21 06:54:18;;;;;;;48.63;44.77;;;9.90;99.90;;;;;;5033571;28;20506;-79
2023/03/21 06:56:45;;;;;;;65.67;61.93;;;9.90;99.90;;;;;;5033370;28;20456;-79
2023/03/21 06:59:13;;;;;;;83.87;78.97;;;9.80;99.90;;;;;;5033320;28;20472;-80
2023/03/21 07:01:41;;;;;;;112.60;107.27;;;9.90;99.90;;;;;;5033259;28;20503;-79
2023/03/21 07:04:08;;;;;;;111.00;105.27;;;9.90;99.90;;;;;;5015516;28;20490;-80
2023/03/21 07:06:36;;;;;;;122.93;116.93;;;9.90;99.90;;;;;;5033129;28;20460;-80
2023/03/21 07:09:04;;;;;;;125.60;120.07;;;9.80;99.90;;;;;;5033124;28;20472;-80
2023/03/21 07:11:33;;;;;;;158.87;151.83;;;9.90;99.90;;;;;;5032536;28;20562;-80
2023/03/21 07:14:00;;;;;;;172.10;165.10;;;9.90;99.90;;;;;;5032621;28;20452;-80
2023/03/21 07:16:28;;;;;;;172.37;163.57;;;9.90;99.90;;;;;;5032340;28;20467;-80
2023/03/21 07:18:57;;;;;;;229.40;219.27;;;9.80;99.90;;;;;;5032762;28;20476;-80
2023/03/21 07:21:25;;;;;;;260.87;250.50;;;9.80;99.90;;;;;;5014795;28;20476;-80
2023/03/21 07:23:52;;;;;;;320.67;307.73;;;9.80;99.90;;;;;;5032130;28;20456;-80
2023/03/21 07:26:19;;;;;;;343.60;329.30;;;9.90;99.90;;;;;;5014930;28;20452;-79
2023/03/21 07:28:46;;;;;;;397.40;380.73;;;10.00;99.90;;;;;;5032568;28;20475;-78
2023/03/21 07:31:16;;;;;;;430.60;412.77;;;10.00;99.90;;;;;;5031877;28;20995;-80
2023/03/21 07:33:44;;;;;;;413.37;396.27;;;10.10;99.90;;;;;;5032221;28;20464;-79
2023/03/21 07:36:14;;;;;;;401.93;385.50;;;10.10;99.90;;;;;;5032410;28;20513;-80
2023/03/21 07:38:41;;;;;;;446.43;428.33;;;10.10;99.90;;;;;;5032176;28;20468;-80
2023/03/21 07:41:08;;;;;;;489.30;467.43;;;10.10;99.90;;;;;;5031920;28;21017;-80
2023/03/21 07:43:35;;;;;;;487.53;465.67;;;10.10;99.90;;;;;;5032161;28;20456;-80
2023/03/21 07:46:02;;;;;;;473.60;453.53;;;10.10;99.90;;;;;;5032152;28;20460;-80
2023/03/21 07:48:31;;;;;;;471.80;451.40;;;10.10;99.90;;;;;;5011893;28;20477;-80
2023/03/21 07:50:59;;;;;;;505.60;483.43;;;10.00;99.90;;;;;;5012528;28;20449;-80
2023/03/21 07:53:26;;;;;;;462.00;441.87;;;10.00;99.90;;;;;;5012399;28;20484;-80
2023/03/21 07:55:55;;;;;;;522.40;496.97;;;10.00;99.90;;;;;;5011760;28;20460;-80
2023/03/21 07:58:23;;;;;;;484.70;463.53;;;10.00;99.90;;;;;;4993972;28;20531;-80
2023/03/21 08:00:50;;;;;;;508.83;485.33;;;10.00;99.90;;;;;;5011835;28;20564;-80
2023/03/21 08:03:17;;;;;;;494.60;472.63;;;10.00;99.90;;;;;;4993846;28;20511;-80
2023/03/21 08:05:45;;;;;;;519.63;495.83;;;10.00;99.90;;;;;;5011771;28;21125;-81
2023/03/21 08:08:13;;;;;;;465.93;445.37;;;10.00;99.90;;;;;;5011355;28;20476;-81
2023/03/21 08:10:42;;;;;;;465.53;445.23;;;9.90;99.90;;;;;;5011434;28;20453;-81
2023/03/21 08:13:09;;;;;;;497.10;474.73;;;9.90;99.90;;;;;;5011367;28;20957;-81
2023/03/21 08:15:36;;;;;;;535.57;510.20;;;10.00;99.90;;;;;;5011850;28;20461;-81
2023/03/21 08:18:03;;;;;;;561.10;532.30;;;10.10;99.90;;;;;;5019569;28;20994;-81
2023/03/21 08:20:30;;;;;;;589.23;556.63;;;10.10;99.90;;;;;;5033898;28;20952;-80
2023/03/21 08:22:57;;;;;;;588.40;555.93;;;10.20;99.90;;;;;;5031087;28;20999;-81
2023/03/21 08:25:25;;;;;;;583.50;551.50;;;10.20;99.90;;;;;;5031001;28;20456;-80
2023/03/21 08:27:52;;;;;;;568.30;539.40;;;10.20;99.90;;;;;;5031290;28;20472;-81
2023/03/21 08:30:21;;;;;;;562.83;535.23;;;10.10;99.90;;;;;;5031319;28;20452;-81
2023/03/21 08:32:49;;;;;;;505.27;482.67;;;10.10;99.90;;;;;;5044257;22;20440;-76
2023/03/21 08:35:19;;;;;;;522.20;497.73;;;10.00;99.90;;;;;;5010968;28;20889;-79
2023/03/21 08:37:46;;;;;;;524.00;499.63;;;10.00;99.90;;;;;;5010822;28;20957;-79
2023/03/21 08:40:15;;;;;;;559.07;530.10;;;10.00;99.90;;;;;;5010494;28;20460;-74
2023/03/21 08:42:45;;;;;;;615.17;584.10;;;10.10;99.90;;;;;;5011252;28;21256;-78
2023/03/21 08:45:13;;;;;;;584.87;557.77;;;10.10;99.90;;;;;;5012419;28;20455;-81
2023/03/21 08:47:40;;;;;;;561.90;536.63;;;10.20;99.90;;;;;;4993912;28;20534;-80
2023/03/21 08:50:13;;;;;;;532.03;508.80;;;10.10;99.90;;;;;;5011444;28;20957;-80
2023/03/21 08:52:39;;;;;;;498.13;477.33;;;10.10;99.90;;;;;;5011595;28;20457;-80
2023/03/21 08:55:08;;;;;;;543.03;518.47;;;10.20;99.90;;;;;;5011811;28;20459;-80
2023/03/21 08:57:34;;;;;;;539.90;515.67;;;10.20;99.90;;;;;;4994143;28;20461;-80
2023/03/21 09:00:11;;;;;;;558.50;532.93;;;10.30;99.90;;;;;;5011615;28;20475;-80
2023/03/21 09:02:38;;;;;;;528.90;504.13;;;10.30;99.90;;;;;;5012093;28;20477;-78
2023/03/21 09:05:10;;;;;;;533.37;509.10;;;10.40;99.90;;;;;;5011692;28;20476;-78
2023/03/21 09:07:38;;;;;;;547.83;522.27;;;10.40;99.90;;;;;;5011423;28;20477;-78
2023/03/21 09:10:12;;;;;;;518.73;495.63;;;10.50;99.90;;;;;;5012122;28;20480;-78
2023/03/21 09:12:40;;;;;;;531.57;508.33;;;10.50;99.90;;;;;;5010817;28;20511;-78
2023/03/21 09:15:13;;;;;;;540.87;515.53;;;10.60;99.90;;;;;;5011204;28;20864;-79
2023/03/21 09:17:41;;;;;;;519.20;496.07;;;10.70;99.90;;;;;;5010998;28;20477;-78
2023/03/21 09:20:17;;;;;;;451.50;433.40;;;10.80;99.90;;;;;;5013966;28;20511;-78
2023/03/21 09:22:46;;;;;;;423.13;406.03;;;10.90;99.90;;;;;;5014572;28;20576;-78
2023/03/21 09:25:14;;;;;;;388.80;373.63;;;11.00;99.90;;;;;;5014735;28;20489;-78
2023/03/21 09:27:41;;;;;;;307.20;295.90;;;11.10;99.90;;;;;;4996611;28;21030;-78
2023/03/21 09:30:17;;;;;;;287.10;276.50;;;11.00;99.90;;;;;;5014708;28;20457;-78
2023/03/21 09:32:47;;;;;;;278.87;268.47;;;11.10;99.90;;;;;;5014371;28;20528;-79
2023/03/21 09:35:16;;;;;;;238.27;229.83;;;11.00;99.90;;;;;;5014720;28;20540;-78
2023/03/21 09:37:43;;;;;;;199.33;192.30;;;11.00;99.90;;;;;;5014471;28;20477;-78
2023/03/21 09:40:18;;;;;;;176.80;170.60;;;11.10;99.90;;;;;;4996941;28;20457;-79
2023/03/21 09:42:59;;;;;;;185.60;178.93;;;11.10;99.90;;;;;;5014388;28;20542;-78
2023/03/21 09:45:35;;;;;;;175.87;169.47;;;11.20;99.90;;;;;;5014687;28;20457;-79
2023/03/21 09:48:02;;;;;;;193.57;186.70;;;11.40;99.90;;;;;;5013993;28;20505;-78
2023/03/21 09:50:33;;;;;;;129.13;124.20;;;11.60;99.90;;;;;;5014302;28;20991;-78
2023/03/21 09:53:04;;;;;;;123.37;118.30;;;11.70;99.90;;;;;;5014309;28;20459;-78
2023/03/21 09:55:33;;;;;;;83.20;79.60;;;11.80;99.90;;;;;;5014282;28;20496;-78
2023/03/21 09:58:06;;;;;;;57.87;55.33;;;11.80;99.90;;;;;;5014197;28;20616;-76
2023/03/21 10:00:38;;;;;;;51.63;49.03;;;11.80;99.90;;;;;;5014122;28;20511;-75
2023/03/21 10:03:16;;;;;;;45.27;42.70;;;11.80;99.90;;;;;;5013982;28;20849;-75
2023/03/21 10:05:45;;;;;;;41.70;39.53;;;11.60;99.90;;;;;;5014176;28;20449;-76
2023/03/21 10:08:18;;;;;;;38.20;35.60;;;11.60;99.90;;;;;;5013794;28;20477;-76
2023/03/21 10:10:49;;;;;;;56.87;54.07;;;11.60;99.90;;;;;;5014054;28;20499;-76
2023/03/21 10:13:20;;;;;;;38.20;36.00;;;11.70;99.90;;;;;;5013652;28;20453;-76
2023/03/21 10:15:48;;;;;;;38.10;35.30;;;11.90;99.90;;;;;;5013880;28;21196;-76
2023/03/21 10:18:22;;;;;;;23.50;21.70;;;12.10;99.90;;;;;;5013566;28;20527;-76
2023/03/21 10:20:50;;;;;;;15.43;13.80;;;12.20;99.90;;;;;;5013886;28;20457;-76
2023/03/21 10:23:20;;;;;;;15.63;11.73;;;12.40;99.90;;;;;;5013560;28;20477;-75
2023/03/21 10:25:50;;;;;;;14.00;10.33;;;12.40;99.90;;;;;;5013628;28;20464;-76
2023/03/21 10:28:20;;;;;;;10.07;8.67;;;12.30;99.90;;;;;;5013624;28;20539;-76
2023/03/21 10:30:51;;;;;;;10.53;7.20;;;12.20;99.90;;;;;;5013483;28;20461;-76
2023/03/21 10:33:21;;;;;;;10.90;8.50;;;12.10;99.90;;;;;;5013512;28;20907;-75
2023/03/21 10:35:53;;;;;;;13.13;9.70;;;11.90;99.90;;;;;;5013729;28;20503;-75
2023/03/21 10:38:23;;;;;;;16.87;11.73;;;12.10;99.90;;;;;;5013114;28;20476;-76
2023/03/21 10:40:50;;;;;;;12.43;11.13;;;12.10;99.90;;;;;;5013577;28;20453;-76
2023/03/21 10:43:32;;;;;;;16.03;14.53;;;12.20;99.90;;;;;;5013172;28;20485;-76
2023/03/21 10:46:07;;;;;;;20.30;18.60;;;12.30;99.90;;;;;;5012731;28;20896;-75
2023/03/21 10:48:37;;;;;;;20.10;18.30;;;12.50;99.90;;;;;;5013191;28;20865;-76
2023/03/21 10:51:07;;;;;;;22.83;16.00;;;12.70;99.90;;;;;;5013209;28;20461;-76
2023/03/21 10:53:39;;;;;;;18.67;15.73;;;12.80;99.90;;;;;;5013064;28;20465;-76
2023/03/21 10:56:10;;;;;;;16.93;15.13;;;12.90;99.90;;;;;;5013374;28;20821;-76
2023/03/21 10:58:43;;;;;;;15.20;10.70;;;13.20;99.90;;;;;;5012815;28;20508;-76
2023/03/21 11:01:29;;;;;;;17.90;10.37;;;13.00;99.90;;;;;;5013252;28;20592;-76
2023/03/21 11:03:59;;;;;;;18.07;9.47;;;13.20;99.90;;;;;;5025681;28;20444;-76
2023/03/21 11:06:31;;;;;;;20.13;9.67;;;13.10;99.90;;;;;;5032937;28;20499;-76
2023/03/21 11:09:03;;;;;;;18.20;7.90;;;13.30;99.90;;;;;;5032557;28;20840;-76
2023/03/21 11:11:36;;;;;;;12.90;8.33;;;13.20;99.90;;;;;;5032492;28;21025;-76
2023/03/21 11:14:06;;;;;;;11.40;7.17;;;13.20;99.90;;;;;;5032493;28;20452;-76
2023/03/21 11:16:40;;;;;;;16.90;7.77;;;13.40;99.90;;;;;;5032781;28;20448;-76
2023/03/21 11:19:14;;;;;;;13.47;6.70;;;13.30;99.90;;;;;;5032395;28;20478;-75
2023/03/21 11:21:41;;;;;;;17.60;7.27;;;13.30;99.90;;;;;;5033145;28;20452;-76
2023/03/21 11:24:15;;;;;;;27.97;7.70;;;13.20;99.90;;;;;;5032233;28;20456;-76
2023/03/21 11:26:43;;;;;;;12.33;6.63;;;13.10;99.90;;;;;;5032377;28;21010;-75
2023/03/21 11:29:35;;;;;;;13.67;7.10;;;12.90;99.90;;;;;;5032779;28;20494;-75
2023/03/21 11:32:11;;;;;;;12.73;6.77;;;12.70;99.90;;;;;;4999264;28;20811;-75
2023/03/21 11:34:45;;;;;;;14.33;6.47;;;12.70;99.90;;;;;;5031194;28;20460;-75
2023/03/21 11:37:20;;;;;;;20.73;7.00;;;12.70;99.90;;;;;;5031680;28;20448;-75
2023/03/21 11:39:47;;;;;;;13.50;6.67;;;12.50;99.90;;;;;;5031039;28;20520;-75
2023/03/21 11:42:30;;;;;;;20.33;9.03;;;12.50;99.90;;;;;;5030435;28;20878;-76
2023/03/21 11:45:04;;;;;;;17.87;9.20;;;12.30;99.90;;;;;;5031531;28;20459;-76
2023/03/21 11:47:32;;;;;;;21.17;9.00;;;12.30;99.90;;;;;;5031459;28;20485;-75
2023/03/21 11:50:00;;;;;;;14.47;9.93;;;12.20;99.90;;;;;;5031164;28;20463;-75
2023/03/21 11:52:36;;;;;;;12.30;8.97;;;12.20;99.90;;;;;;5031118;28;20822;-76
2023/03/21 11:55:26;;;;;;;20.47;11.47;;;12.20;99.90;;;;;;5031038;28;20455;-81
2023/03/21 11:58:05;;;;;;;14.90;10.97;;;12.10;99.90;;;;;;5030526;28;20480;-75
2023/03/21 12:00:38;;;;;;;18.37;13.50;;;12.10;99.90;;;;;;5030975;28;20467;-75
2023/03/21 12:03:37;;;;;;;16.67;12.73;;;11.90;99.90;;;;;;5030893;28;20480;-75
2023/03/21 12:06:13;;;;;;;15.87;11.43;;;11.80;99.90;;;;;;5030340;28;20455;-75
2023/03/21 12:08:49;;;;;;;20.33;18.30;;;11.60;99.90;;;;;;5031382;28;20562;-75
2023/03/21 12:11:24;;;;;;;25.70;23.10;;;11.60;99.90;;;;;;5030890;28;20447;-78
2023/03/21 12:14:01;;;;;;;37.97;35.23;;;11.60;99.90;;;;;;5013788;28;20466;-78
2023/03/21 12:16:40;;;;;;;108.67;103.97;;;11.70;99.90;;;;;;5030570;28;20454;-78
2023/03/21 12:19:19;;;;;;;127.67;122.13;;;11.60;99.90;;;;;;5031093;28;20558;-78
2023/03/21 12:21:58;;;;;;;167.57;160.33;;;11.60;99.90;;;;;;5030813;28;20462;-78
2023/03/21 12:24:32;;;;;;;266.17;256.20;;;11.60;99.90;;;;;;5030953;28;20529;-78
2023/03/21 12:27:05;;;;;;;240.27;231.17;;;11.80;99.90;;;;;;5031072;28;20440;-78
2023/03/21 12:29:59;;;;;;;270.27;260.10;;;12.00;99.90;;;;;;5030977;28;20507;-78
2023/03/21 12:32:38;;;;;;;263.43;253.63;;;12.30;99.90;;;;;;5029002;28;20759;-78
2023/03/21 12:35:21;;;;;;;182.77;175.60;;;12.50;99.90;;;;;;5030627;28;20456;-78
2023/03/21 12:37:57;;;;;;;150.63;144.80;;;12.60;99.90;;;;;;5030746;28;20551;-78
2023/03/21 12:40:42;;;;;;;121.73;116.93;;;12.70;99.90;;;;;;5030689;28;20535;-78
2023/03/21 12:43:27;;;;;;;79.63;75.53;;;12.80;99.90;;;;;;5030582;28;20478;-75
2023/03/21 12:45:58;;;;;;;65.67;62.37;;;12.90;99.90;;;;;;5031012;28;20510;-76
2023/03/21 12:48:32;;;;;;;52.50;49.43;;;12.80;99.90;;;;;;5030603;28;20692;-75
2023/03/21 12:51:03;;;;;;;33.10;30.87;;;12.90;99.90;;;;;;5030902;28;20737;-75